TimeCST,TemperatureF,Dew PointF,Humidity,Sea Level PressureIn,VisibilityMPH,Wind Direction,Wind SpeedMPH,Gust SpeedMPH,PrecipitationIn,Events,Conditions,WindDirDegrees,DateUTC
12:53 AM,45.0,37.0,74,30.19,10.0,NNW,3.5,-,N/A,,Clear,330,2013-11-03 05:53:00
1:53 AM,44.1,36.0,73,30.19,10.0,NNW,4.6,-,N/A,,Clear,330,2013-11-03 06:53:00
1:53 AM,42.1,36.0,79,30.20,10.0,Calm,Calm,-,N/A,,Clear,0,2013-11-03 07:53:00
2:53 AM,39.0,36.0,89,30.21,7.0,Calm,Calm,-,N/A,,Clear,0,2013-11-03 08:53:00
3:53 AM,37.9,35.1,89,30.23,5.0,Calm,Calm,-,N/A,,Clear,0,2013-11-03 09:53:00
4:53 AM,37.9,35.1,89,30.25,4.0,Calm,Calm,-,N/A,,Clear,0,2013-11-03 10:53:00
5:53 AM,36.0,33.1,89,30.27,6.0,Calm,Calm,-,N/A,,Clear,0,2013-11-03 11:53:00
6:53 AM,36.0,35.1,97,30.29,5.0,Calm,Calm,-,N/A,Fog,Patches of Fog,0,2013-11-03 12:53:00
7:53 AM,45.0,39.0,80,30.32,7.0,NNW,3.5,-,N/A,,Clear,330,2013-11-03 13:53:00
8:53 AM,48.9,39.0,69,30.33,10.0,North,4.6,-,N/A,,Partly Cloudy,10,2013-11-03 14:53:00
9:53 AM,52.0,35.1,53,30.34,10.0,North,4.6,-,N/A,,Partly Cloudy,10,2013-11-03 15:53:00
10:53 AM,54.0,34.0,47,30.33,10.0,NE,5.8,-,N/A,,Partly Cloudy,40,2013-11-03 16:53:00
11:53 AM,57.0,35.1,44,30.30,10.0,Calm,Calm,-,N/A,,Partly Cloudy,0,2013-11-03 17:53:00
12:53 PM,57.0,35.1,44,30.27,10.0,Calm,Calm,-,N/A,,Clear,0,2013-11-03 18:53:00
1:53 PM,59.0,35.1,41,30.26,10.0,ENE,4.6,-,N/A,,Clear,60,2013-11-03 19:53:00
2:53 PM,57.9,33.1,39,30.26,10.0,East,4.6,-,N/A,,Clear,90,2013-11-03 20:53:00
3:53 PM,57.0,32.0,39,30.25,10.0,ENE,5.8,-,N/A,,Clear,70,2013-11-03 21:53:00
4:53 PM,53.1,33.1,47,30.25,10.0,ENE,5.8,-,N/A,,Clear,70,2013-11-03 22:53:00
5:53 PM,50.0,34.0,54,30.25,10.0,East,4.6,-,N/A,,Clear,100,2013-11-03 23:53:00
6:53 PM,48.9,34.0,56,30.27,10.0,Calm,Calm,-,N/A,,Clear,0,2013-11-04 00:53:00
7:53 PM,48.0,36.0,63,30.26,10.0,East,3.5,-,N/A,,Clear,80,2013-11-04 01:53:00
8:53 PM,45.0,37.0,74,30.28,10.0,Calm,Calm,-,N/A,,Clear,0,2013-11-04 02:53:00
9:53 PM,43.0,37.0,80,30.28,10.0,Calm,Calm,-,N/A,,Clear,0,2013-11-04 03:53:00
10:53 PM,42.1,36.0,79,30.30,10.0,Calm,Calm,-,N/A,,Clear,0,2013-11-04 04:53:00